Time;durP1;ratioP1;P1;durP2;ratioP2;P2;SDS_P1;SDS_P2;PMS_P1;PMS_P2;Temp;Humidity;BMP_temperature;BMP_pressure;BME280_temperature;BME280_humidity;BME280_pressure;Samples;Min_cycle;Max_cycle;Signal;HPM_P1;HPM_P2
2023/10/25 00:02:20;;;;;;;4.57;4.20;;;10.00;99.90;;;;;;939243;149;27314;-82
2023/10/25 00:04:47;;;;;;;5.27;4.77;;;10.00;99.90;;;;;;929778;149;27369;-81
2023/10/25 00:07:13;;;;;;;5.17;4.67;;;10.00;99.90;;;;;;925878;150;27973;-81
2023/10/25 00:09:40;;;;;;;4.87;4.40;;;10.00;99.90;;;;;;923668;150;27331;-80
2023/10/25 00:12:07;;;;;;;5.40;4.40;;;10.10;99.90;;;;;;928653;150;27471;-77
2023/10/25 00:14:33;;;;;;;4.93;4.53;;;10.10;99.90;;;;;;924618;150;27478;-81
2023/10/25 00:17:00;;;;;;;4.37;4.07;;;10.10;99.90;;;;;;929353;150;27400;-81
2023/10/25 00:19:26;;;;;;;5.17;4.07;;;10.20;99.90;;;;;;925035;150;27489;-81
2023/10/25 00:21:53;;;;;;;5.33;4.83;;;10.20;99.90;;;;;;925526;150;27427;-79
2023/10/25 00:24:20;;;;;;;4.33;3.93;;;10.20;99.90;;;;;;925272;150;27376;-79
2023/10/25 00:26:46;;;;;;;4.77;4.30;;;10.20;99.90;;;;;;925805;150;27488;-79
2023/10/25 00:29:13;;;;;;;4.37;4.07;;;10.20;99.90;;;;;;924851;150;27463;-76
2023/10/25 00:31:39;;;;;;;5.00;3.80;;;10.20;99.90;;;;;;926026;150;27343;-81
2023/10/25 00:34:06;;;;;;;4.30;4.00;;;10.10;99.90;;;;;;928669;150;27455;-77
2023/10/25 00:36:32;;;;;;;4.17;3.70;;;10.10;99.90;;;;;;926047;150;27355;-77
2023/10/25 00:38:59;;;;;;;4.50;3.60;;;10.10;99.90;;;;;;924468;150;27353;-76
2023/10/25 00:41:26;;;;;;;4.50;3.57;;;10.10;99.90;;;;;;923697;150;27332;-77
2023/10/25 00:43:52;;;;;;;3.90;3.60;;;10.10;99.90;;;;;;926703;150;27362;-79
2023/10/25 00:46:19;;;;;;;4.43;4.07;;;10.10;99.90;;;;;;926461;150;27461;-79
2023/10/25 00:48:45;;;;;;;4.60;4.20;;;10.10;99.90;;;;;;925463;150;27419;-79
2023/10/25 00:51:12;;;;;;;3.30;3.10;;;10.10;99.90;;;;;;924348;150;27385;-80
2023/10/25 00:53:39;;;;;;;4.30;3.90;;;10.10;99.90;;;;;;924371;150;27324;-79
2023/10/25 00:56:05;;;;;;;3.70;3.40;;;10.10;99.90;;;;;;927936;150;27854;-79
2023/10/25 00:58:32;;;;;;;4.43;4.03;;;10.10;99.90;;;;;;924886;150;27313;-79
2023/10/25 01:00:58;;;;;;;3.67;3.47;;;10.10;99.90;;;;;;926427;150;27384;-79
2023/10/25 01:03:25;;;;;;;4.50;4.10;;;10.10;99.90;;;;;;926036;150;27435;-79
2023/10/25 01:05:51;;;;;;;4.90;4.50;;;10.10;99.90;;;;;;925662;150;27418;-79
2023/10/25 01:08:18;;;;;;;4.20;3.90;;;10.20;99.90;;;;;;926005;150;27428;-79
2023/10/25 01:10:45;;;;;;;5.07;4.50;;;10.20;99.90;;;;;;925137;150;27472;-79
2023/10/25 01:13:11;;;;;;;5.27;4.27;;;10.20;99.90;;;;;;927420;150;27392;-79
2023/10/25 01:15:38;;;;;;;4.73;4.40;;;10.20;99.90;;;;;;927475;150;27371;-79
2023/10/25 01:18:04;;;;;;;4.77;3.70;;;10.20;99.90;;;;;;928076;150;27363;-80
2023/10/25 01:20:31;;;;;;;5.20;4.80;;;10.20;99.90;;;;;;925798;150;27380;-80
2023/10/25 01:22:58;;;;;;;4.37;3.97;;;10.20;99.90;;;;;;908962;152;28330;-80
2023/10/25 01:25:24;;;;;;;4.30;3.90;;;10.20;99.90;;;;;;909642;152;27355;-78
2023/10/25 01:27:51;;;;;;;4.50;4.10;;;10.20;99.90;;;;;;920153;151;27324;-79
2023/10/25 01:30:17;;;;;;;4.63;4.23;;;10.20;99.90;;;;;;905071;153;27345;-79
2023/10/25 01:32:44;;;;;;;4.50;4.10;;;10.20;99.90;;;;;;925674;150;27381;-78
2023/10/25 01:35:11;;;;;;;4.57;4.13;;;10.20;99.90;;;;;;927329;150;27454;-79
2023/10/25 01:37:37;;;;;;;4.70;4.30;;;10.20;99.90;;;;;;925421;150;27323;-79
2023/10/25 01:40:04;;;;;;;5.10;4.63;;;10.20;99.90;;;;;;924899;150;27326;-79
2023/10/25 01:42:30;;;;;;;4.90;4.53;;;10.20;99.90;;;;;;924783;150;27462;-79
2023/10/25 01:44:57;;;;;;;4.63;4.23;;;10.20;99.90;;;;;;927767;150;27459;-79
2023/10/25 01:47:23;;;;;;;5.43;4.90;;;10.20;99.90;;;;;;926935;150;27374;-79
2023/10/25 01:49:50;;;;;;;4.97;4.47;;;10.20;99.90;;;;;;927177;150;27359;-79
2023/10/25 01:52:17;;;;;;;4.93;4.43;;;10.20;99.90;;;;;;926316;150;27350;-79
2023/10/25 01:54:45;;;;;;;4.93;4.47;;;10.20;99.90;;;;;;925702;150;27474;-77
2023/10/25 01:57:10;;;;;;;5.70;5.20;;;10.20;99.90;;;;;;914373;152;27390;-76
2023/10/25 01:59:36;;;;;;;4.30;4.00;;;10.20;99.90;;;;;;908502;153;27407;-78
2023/10/25 02:02:03;;;;;;;5.17;4.40;;;10.20;99.90;;;;;;924484;150;27404;-77
2023/10/25 02:04:30;;;;;;;4.83;4.37;;;10.20;99.90;;;;;;926999;150;27330;-77
2023/10/25 02:06:56;;;;;;;4.70;4.30;;;10.20;99.90;;;;;;927966;150;28259;-76
2023/10/25 02:09:23;;;;;;;5.23;4.80;;;10.30;99.90;;;;;;925351;150;27470;-76
2023/10/25 02:11:49;;;;;;;5.07;4.67;;;10.30;99.90;;;;;;925314;150;27358;-77
2023/10/25 02:14:16;;;;;;;4.77;4.37;;;10.30;99.90;;;;;;925242;150;28077;-76
2023/10/25 02:16:43;;;;;;;5.33;4.83;;;10.30;99.90;;;;;;925350;150;27325;-77
2023/10/25 02:19:09;;;;;;;5.87;5.37;;;10.30;99.90;;;;;;926846;150;27347;-77
2023/10/25 02:21:36;;;;;;;5.53;4.97;;;10.30;99.90;;;;;;912749;152;27464;-78
2023/10/25 02:24:02;;;;;;;6.00;4.97;;;10.40;99.90;;;;;;913430;152;27404;-77
2023/10/25 02:26:29;;;;;;;5.47;4.97;;;10.40;99.90;;;;;;914452;152;27379;-77
2023/10/25 02:28:55;;;;;;;5.27;4.77;;;10.40;99.90;;;;;;913398;152;27391;-77
2023/10/25 02:31:22;;;;;;;5.37;4.87;;;10.40;99.90;;;;;;928566;150;27443;-77
2023/10/25 02:33:49;;;;;;;6.03;5.30;;;10.40;99.90;;;;;;912500;152;27468;-77
2023/10/25 02:36:16;;;;;;;5.13;4.73;;;10.40;99.90;;;;;;918340;152;27359;-77
2023/10/25 02:38:42;;;;;;;5.60;4.93;;;10.50;99.90;;;;;;910944;152;27380;-77
2023/10/25 02:41:08;;;;;;;5.57;5.07;;;10.50;99.90;;;;;;926282;150;27489;-76
2023/10/25 02:43:35;;;;;;;5.80;5.30;;;10.50;99.90;;;;;;926772;150;27492;-76
2023/10/25 02:46:02;;;;;;;5.70;5.20;;;10.50;99.90;;;;;;926511;150;27422;-76
2023/10/25 02:48:28;;;;;;;5.77;5.27;;;10.50;99.90;;;;;;927859;150;27329;-77
2023/10/25 02:50:55;;;;;;;5.93;5.40;;;10.60;99.90;;;;;;925380;150;27824;-77
2023/10/25 02:53:21;;;;;;;5.47;4.97;;;10.60;99.90;;;;;;927269;150;27353;-81
2023/10/25 02:55:48;;;;;;;9.30;5.93;;;10.60;99.90;;;;;;926038;150;27395;-77
2023/10/25 02:58:15;;;;;;;7.13;6.00;;;10.60;99.90;;;;;;913358;153;27479;-81
2023/10/25 03:00:41;;;;;;;6.47;5.67;;;10.70;99.90;;;;;;918260;152;27327;-80
2023/10/25 03:03:08;;;;;;;5.97;5.37;;;10.70;99.90;;;;;;909456;152;27521;-75
2023/10/25 03:05:34;;;;;;;6.13;5.53;;;10.70;99.90;;;;;;928551;149;27305;-75
2023/10/25 03:08:01;;;;;;;6.40;5.30;;;10.70;99.90;;;;;;936735;148;27331;-77
2023/10/25 03:10:27;;;;;;;6.73;6.13;;;10.70;99.90;;;;;;939619;149;27338;-75
2023/10/25 03:12:54;;;;;;;6.13;5.57;;;10.70;99.90;;;;;;937659;149;27395;-75
2023/10/25 03:15:21;;;;;;;7.87;6.10;;;10.70;99.90;;;;;;940094;149;27353;-75
2023/10/25 03:17:47;;;;;;;6.33;5.77;;;10.80;99.90;;;;;;939703;149;27374;-75
2023/10/25 03:20:14;;;;;;;6.00;5.50;;;10.80;99.90;;;;;;939915;149;27353;-75
2023/10/25 03:22:40;;;;;;;6.30;5.80;;;10.80;99.90;;;;;;936398;149;27370;-75
2023/10/25 03:25:07;;;;;;;9.20;5.60;;;10.80;99.90;;;;;;940203;148;27486;-75
2023/10/25 03:27:34;;;;;;;7.07;6.27;;;10.80;99.90;;;;;;938505;149;27333;-75
2023/10/25 03:30:00;;;;;;;6.90;6.30;;;10.80;99.90;;;;;;938399;148;27349;-77
2023/10/25 03:32:27;;;;;;;6.07;5.27;;;10.80;99.90;;;;;;938047;149;27368;-76
2023/10/25 03:34:53;;;;;;;6.70;6.00;;;10.80;99.90;;;;;;939465;149;27325;-75
2023/10/25 03:37:20;;;;;;;6.67;6.07;;;10.80;99.90;;;;;;939131;149;27445;-77
2023/10/25 03:39:47;;;;;;;6.67;6.07;;;10.80;99.90;;;;;;937878;149;28137;-75
2023/10/25 03:42:13;;;;;;;6.23;5.73;;;10.80;99.90;;;;;;937741;149;27406;-75
2023/10/25 03:44:40;;;;;;;6.73;6.13;;;10.70;99.90;;;;;;938623;149;27301;-75
2023/10/25 03:47:06;;;;;;;7.67;5.80;;;10.70;99.90;;;;;;938387;149;27386;-75
2023/10/25 03:49:33;;;;;;;5.83;5.20;;;10.70;99.90;;;;;;936608;149;27330;-76
2023/10/25 03:51:59;;;;;;;6.20;5.60;;;10.60;99.90;;;;;;938635;149;28080;-75
2023/10/25 03:54:26;;;;;;;6.37;5.50;;;10.60;99.90;;;;;;938614;149;27419;-77
2023/10/25 03:56:53;;;;;;;6.20;5.60;;;10.60;99.90;;;;;;938252;149;27466;-75
2023/10/25 03:59:19;;;;;;;7.70;5.87;;;10.60;99.90;;;;;;940419;149;27290;-75
2023/10/25 04:01:46;;;;;;;6.37;5.57;;;10.60;99.90;;;;;;937972;149;27340;-75
2023/10/25 04:04:12;;;;;;;6.27;5.70;;;10.50;99.90;;;;;;936994;149;27403;-75
2023/10/25 04:06:39;;;;;;;6.37;5.77;;;10.50;99.90;;;;;;939324;149;27500;-75
2023/10/25 04:09:08;;;;;;;6.93;6.33;;;10.50;99.90;;;;;;937168;149;27332;-74
2023/10/25 04:11:32;;;;;;;6.60;6.00;;;10.40;99.90;;;;;;937036;149;27325;-74
2023/10/25 04:13:59;;;;;;;6.20;5.60;;;10.40;99.90;;;;;;937959;149;27363;-81
2023/10/25 04:16:27;;;;;;;6.57;5.97;;;10.40;99.90;;;;;;936757;149;27289;-80
2023/10/25 04:18:52;;;;;;;6.17;5.67;;;10.30;99.90;;;;;;937553;149;27424;-79
2023/10/25 04:21:18;;;;;;;7.50;5.90;;;10.30;99.90;;;;;;936815;149;27499;-80
2023/10/25 04:23:45;;;;;;;6.83;6.07;;;10.20;99.90;;;;;;939126;149;27967;-80
2023/10/25 04:26:15;;;;;;;6.93;6.27;;;10.20;99.90;;;;;;939638;149;27309;-80
2023/10/25 04:28:41;;;;;;;5.90;5.37;;;10.20;99.90;;;;;;938722;149;27391;-80
2023/10/25 04:31:07;;;;;;;7.20;6.50;;;10.10;99.90;;;;;;938732;149;27323;-81
2023/10/25 04:33:34;;;;;;;6.43;5.83;;;10.10;99.90;;;;;;938229;148;27373;-79
2023/10/25 04:36:00;;;;;;;6.83;6.23;;;10.10;99.90;;;;;;938705;149;27510;-78
2023/10/25 04:38:27;;;;;;;6.60;5.80;;;10.00;99.90;;;;;;939697;149;27372;-79
2023/10/25 04:40:54;;;;;;;6.40;5.80;;;10.00;99.90;;;;;;937261;149;27822;-76
2023/10/25 04:43:20;;;;;;;6.47;5.93;;;10.00;99.90;;;;;;938993;149;27378;-81
2023/10/25 04:45:47;;;;;;;7.27;6.57;;;10.00;99.90;;;;;;936518;149;27394;-80
2023/10/25 04:48:13;;;;;;;7.60;5.87;;;9.90;99.90;;;;;;940352;149;27423;-79
2023/10/25 04:50:40;;;;;;;6.13;5.63;;;9.90;99.90;;;;;;937338;149;27315;-81
2023/10/25 04:53:07;;;;;;;6.47;5.97;;;9.80;99.90;;;;;;940413;149;27317;-78
2023/10/25 04:55:36;;;;;;;6.20;5.60;;;9.80;99.90;;;;;;938043;149;27309;-80
2023/10/25 04:58:02;;;;;;;6.17;5.57;;;9.80;99.90;;;;;;938492;149;27453;-79
2023/10/25 05:00:29;;;;;;;6.97;6.03;;;9.80;99.90;;;;;;937688;149;27349;-81
2023/10/25 05:02:56;;;;;;;6.03;5.43;;;9.70;99.90;;;;;;923579;151;27407;-81
2023/10/25 05:05:22;;;;;;;6.17;5.63;;;9.70;99.90;;;;;;938635;149;27310;-81
2023/10/25 05:07:49;;;;;;;6.97;6.27;;;9.70;99.90;;;;;;918968;151;27517;-81
2023/10/25 05:10:15;;;;;;;7.07;6.37;;;9.70;99.90;;;;;;918865;152;27392;-81
2023/10/25 05:12:42;;;;;;;6.33;5.73;;;9.70;99.90;;;;;;904269;153;27455;-77
2023/10/25 05:15:09;;;;;;;6.60;5.93;;;9.70;99.90;;;;;;923189;150;27441;-79
2023/10/25 05:17:35;;;;;;;7.40;6.70;;;9.70;99.90;;;;;;924969;150;27372;-81
2023/10/25 05:20:03;;;;;;;6.13;5.53;;;9.70;99.90;;;;;;925979;150;27479;-81
2023/10/25 05:22:28;;;;;;;7.40;6.70;;;9.70;99.90;;;;;;923534;150;27470;-79
2023/10/25 05:24:55;;;;;;;8.10;6.73;;;9.70;99.90;;;;;;924819;150;27755;-79
2023/10/25 05:27:21;;;;;;;11.80;6.53;;;9.70;99.90;;;;;;927898;150;27339;-81
2023/10/25 05:29:48;;;;;;;8.37;7.00;;;9.70;99.90;;;;;;925978;150;27099;-80
2023/10/25 05:32:15;;;;;;;9.73;7.70;;;9.70;99.90;;;;;;927327;150;27340;-81
2023/10/25 05:34:41;;;;;;;10.00;6.47;;;9.70;99.90;;;;;;924709;150;27385;-81
2023/10/25 05:37:08;;;;;;;7.53;5.93;;;9.70;99.90;;;;;;926804;150;27384;-77
2023/10/25 05:39:34;;;;;;;14.90;6.90;;;9.70;99.90;;;;;;925424;150;27337;-77
2023/10/25 05:42:01;;;;;;;22.93;8.67;;;9.70;99.90;;;;;;927244;150;27434;-81
2023/10/25 05:44:28;;;;;;;31.63;8.50;;;9.70;99.90;;;;;;926407;150;27436;-81
2023/10/25 05:46:54;;;;;;;28.60;8.87;;;9.70;99.90;;;;;;925781;150;27407;-82
2023/10/25 05:49:21;;;;;;;22.63;8.83;;;9.70;99.90;;;;;;925493;150;27518;-82
2023/10/25 05:51:47;;;;;;;14.97;6.90;;;9.70;99.90;;;;;;926161;150;27347;-81
2023/10/25 05:54:14;;;;;;;17.63;7.47;;;9.70;99.90;;;;;;924454;150;27461;-81
2023/10/25 05:56:41;;;;;;;16.97;7.80;;;9.80;99.90;;;;;;925826;150;27408;-81
2023/10/25 05:59:07;;;;;;;11.77;6.47;;;9.80;99.90;;;;;;923895;150;27503;-81
2023/10/25 06:01:46;;;;;;;7.67;6.40;;;9.80;99.90;;;;;;926697;150;27367;-81
2023/10/25 06:04:12;;;;;;;7.57;6.57;;;9.80;99.90;;;;;;923630;150;27326;-81
2023/10/25 06:06:39;;;;;;;6.73;6.07;;;9.80;99.90;;;;;;925316;150;27432;-80
2023/10/25 06:09:05;;;;;;;6.13;5.53;;;9.80;99.90;;;;;;933775;149;27435;-82
2023/10/25 06:11:32;;;;;;;7.03;6.33;;;9.80;99.90;;;;;;936746;149;27394;-81
2023/10/25 06:13:58;;;;;;;8.00;7.00;;;9.80;99.90;;;;;;939941;149;27317;-78
2023/10/25 06:16:25;;;;;;;9.90;6.80;;;9.90;99.90;;;;;;938543;149;27333;-79
2023/10/25 06:18:52;;;;;;;9.77;6.70;;;9.90;99.90;;;;;;938050;149;27449;-79
2023/10/25 06:21:18;;;;;;;8.47;6.70;;;10.00;99.90;;;;;;937501;149;27327;-79
2023/10/25 06:23:45;;;;;;;13.30;7.03;;;10.10;99.90;;;;;;940117;149;27990;-80
2023/10/25 06:26:11;;;;;;;16.57;6.73;;;10.20;99.90;;;;;;937707;149;27330;-79
2023/10/25 06:28:38;;;;;;;15.30;7.20;;;10.20;99.90;;;;;;936657;149;27321;-79
2023/10/25 06:31:05;;;;;;;12.60;7.03;;;10.30;99.90;;;;;;939380;149;27402;-79
2023/10/25 06:33:31;;;;;;;10.00;6.67;;;10.40;99.90;;;;;;937851;149;27354;-78
2023/10/25 06:36:01;;;;;;;7.17;6.57;;;10.50;99.90;;;;;;935711;149;27453;-78
2023/10/25 06:38:27;;;;;;;8.67;7.77;;;10.60;99.90;;;;;;938219;149;27324;-79
2023/10/25 06:40:54;;;;;;;7.43;6.73;;;10.70;99.90;;;;;;938842;149;27438;-78
2023/10/25 06:43:20;;;;;;;6.90;6.30;;;10.70;99.90;;;;;;938934;149;27440;-78
2023/10/25 06:45:47;;;;;;;7.53;6.83;;;10.80;99.90;;;;;;939558;149;27364;-78
2023/10/25 06:48:14;;;;;;;7.10;6.40;;;10.90;99.90;;;;;;938694;148;27428;-78
2023/10/25 06:50:40;;;;;;;7.33;6.67;;;10.90;99.90;;;;;;938476;149;27368;-78
2023/10/25 06:53:07;;;;;;;7.30;6.60;;;11.00;99.90;;;;;;938312;149;27380;-78
2023/10/25 06:55:33;;;;;;;8.20;7.43;;;11.10;99.90;;;;;;941271;149;27824;-78
2023/10/25 06:58:00;;;;;;;8.30;7.40;;;11.20;99.90;;;;;;940090;149;27335;-78
2023/10/25 07:00:27;;;;;;;8.53;7.70;;;11.20;99.90;;;;;;939026;149;27310;-78
2023/10/25 07:02:53;;;;;;;7.43;6.73;;;11.30;99.90;;;;;;938582;149;27311;-78
2023/10/25 07:05:21;;;;;;;8.03;7.23;;;11.40;99.90;;;;;;938569;149;27401;-78
2023/10/25 07:07:47;;;;;;;8.53;7.60;;;11.50;99.90;;;;;;938196;149;27320;-78
2023/10/25 07:10:13;;;;;;;8.07;7.27;;;11.70;99.90;;;;;;920683;151;28852;-78
2023/10/25 07:12:40;;;;;;;7.60;6.90;;;11.90;99.90;;;;;;924108;151;27490;-78
2023/10/25 07:15:06;;;;;;;7.43;6.73;;;12.10;99.90;;;;;;923525;152;27432;-78
2023/10/25 07:17:33;;;;;;;8.40;6.17;;;12.30;99.90;;;;;;939320;149;27377;-78
2023/10/25 07:19:59;;;;;;;6.50;5.83;;;12.50;99.90;;;;;;942755;148;27980;-78
2023/10/25 07:22:28;;;;;;;6.10;5.50;;;12.70;99.90;;;;;;923284;151;27432;-78
2023/10/25 07:24:55;;;;;;;5.10;4.60;;;12.90;99.90;;;;;;936446;149;27390;-78
2023/10/25 07:27:22;;;;;;;5.33;4.83;;;13.20;99.90;;;;;;920941;151;27522;-78
2023/10/25 07:29:48;;;;;;;4.83;4.00;;;13.40;99.90;;;;;;937543;149;27402;-78
2023/10/25 07:32:15;;;;;;;4.87;4.45;;;13.60;99.90;;;;;;937527;149;27342;-78
2023/10/25 07:34:41;;;;;;;4.47;4.08;;;13.90;99.90;;;;;;940159;149;27334;-78
2023/10/25 07:37:08;;;;;;;3.60;3.30;;;14.10;99.90;;;;;;937089;149;27440;-78
2023/10/25 07:39:35;;;;;;;3.67;3.37;;;14.30;99.90;;;;;;937571;148;27489;-78
2023/10/25 07:42:04;;;;;;;4.33;3.20;;;14.40;99.90;;;;;;938993;149;27412;-78
2023/10/25 07:44:30;;;;;;;3.17;2.90;;;14.50;99.90;;;;;;936223;149;27424;-77
2023/10/25 07:46:57;;;;;;;4.00;3.05;;;14.40;99.90;;;;;;925880;151;27309;-77
2023/10/25 07:49:23;;;;;;;3.77;3.47;;;14.40;99.90;;;;;;924656;151;27719;-77
2023/10/25 07:51:50;;;;;;;3.57;3.27;;;14.30;99.90;;;;;;923056;151;27912;-77
2023/10/25 07:54:17;;;;;;;5.20;3.30;;;14.30;99.90;;;;;;917559;151;28003;-77
2023/10/25 07:56:43;;;;;;;4.83;3.42;;;14.40;99.90;;;;;;918430;152;27378;-76
2023/10/25 07:59:10;;;;;;;3.25;2.90;;;14.60;99.90;;;;;;938382;149;27329;-77
2023/10/25 08:01:38;;;;;;;3.20;2.90;;;14.90;99.90;;;;;;939208;149;27338;-76
2023/10/25 08:04:03;;;;;;;3.45;2.87;;;15.20;99.90;;;;;;939796;149;27409;-77
2023/10/25 08:06:30;;;;;;;2.72;2.52;;;15.60;99.90;;;;;;938916;151;27356;-77
2023/10/25 08:08:56;;;;;;;2.33;2.22;;;15.90;99.90;;;;;;936728;149;27448;-77
2023/10/25 08:11:23;;;;;;;2.90;2.40;;;16.10;99.90;;;;;;928575;150;27317;-77
2023/10/25 08:13:49;;;;;;;2.67;2.45;;;16.30;99.90;;;;;;925628;150;27390;-77
2023/10/25 08:16:16;;;;;;;3.30;2.58;;;16.50;99.90;;;;;;927137;150;27469;-76
2023/10/25 08:18:43;;;;;;;2.42;2.22;;;16.70;99.90;;;;;;925544;150;27376;-77
2023/10/25 08:21:12;;;;;;;4.62;2.47;;;16.80;99.90;;;;;;927829;150;27268;-77
2023/10/25 08:23:39;;;;;;;2.60;2.40;;;17.00;99.90;;;;;;927215;150;27331;-77
2023/10/25 08:26:06;;;;;;;3.05;2.75;;;17.20;99.90;;;;;;925029;150;27413;-76
2023/10/25 08:28:32;;;;;;;2.55;2.35;;;17.30;99.90;;;;;;925862;150;27318;-77
2023/10/25 08:30:59;;;;;;;3.15;2.85;;;17.40;99.90;;;;;;925798;150;27423;-77
2023/10/25 08:33:25;;;;;;;3.08;2.87;;;17.50;99.90;;;;;;926992;150;27353;-77
2023/10/25 08:36:01;;;;;;;2.58;2.30;;;17.50;99.90;;;;;;926051;150;27457;-78
2023/10/25 08:38:28;;;;;;;3.12;2.92;;;17.40;99.90;;;;;;930904;150;27454;-76
2023/10/25 08:40:54;;;;;;;3.30;3.10;;;17.30;99.90;;;;;;926465;150;27385;-77
2023/10/25 08:43:21;;;;;;;2.83;2.62;;;17.20;99.90;;;;;;925019;150;28162;-78
2023/10/25 08:45:47;;;;;;;2.95;2.58;;;17.20;99.90;;;;;;926398;150;28626;-78
2023/10/25 08:48:14;;;;;;;3.17;2.87;;;17.30;99.90;;;;;;926232;150;27272;-78
2023/10/25 08:50:40;;;;;;;3.52;3.22;;;17.30;99.90;;;;;;928470;150;27377;-78
2023/10/25 08:53:07;;;;;;;2.83;2.50;;;17.40;99.90;;;;;;926966;150;27396;-75
2023/10/25 08:55:34;;;;;;;2.90;2.70;;;17.60;99.90;;;;;;912260;152;27448;-74
2023/10/25 08:58:00;;;;;;;3.00;2.80;;;17.70;99.90;;;;;;910484;153;27395;-78
2023/10/25 09:00:30;;;;;;;3.95;2.62;;;17.90;99.90;;;;;;926418;150;27292;-75
2023/10/25 09:02:53;;;;;;;2.77;2.58;;;17.90;99.90;;;;;;924962;150;27346;-75
2023/10/25 09:05:20;;;;;;;3.33;3.02;;;18.00;99.90;;;;;;910141;152;27386;-74
2023/10/25 09:07:47;;;;;;;3.08;2.87;;;18.00;99.90;;;;;;925829;150;27450;-76
2023/10/25 09:10:17;;;;;;;3.05;2.60;;;18.00;99.90;;;;;;931065;151;27434;-77
2023/10/25 09:12:43;;;;;;;3.08;2.87;;;17.90;99.90;;;;;;935317;150;27455;-76
2023/10/25 09:15:09;;;;;;;2.80;2.60;;;18.00;99.90;;;;;;935659;152;27348;-75
2023/10/25 09:17:36;;;;;;;3.05;2.77;;;18.00;99.90;;;;;;935874;152;27263;-74
2023/10/25 09:20:02;;;;;;;3.00;2.80;;;18.00;99.90;;;;;;934690;152;27779;-74
2023/10/25 09:22:30;;;;;;;2.70;2.50;;;17.90;99.90;;;;;;939107;152;27322;-75
2023/10/25 09:24:56;;;;;;;3.37;3.08;;;17.90;99.90;;;;;;935817;152;27392;-74
2023/10/25 09:27:22;;;;;;;2.90;2.70;;;17.90;99.90;;;;;;935247;150;27279;-75
2023/10/25 09:29:51;;;;;;;2.55;2.35;;;17.90;99.90;;;;;;936646;152;27496;-76
2023/10/25 09:32:21;;;;;;;2.72;2.52;;;17.90;99.90;;;;;;934709;152;27341;-78
2023/10/25 09:34:47;;;;;;;3.27;2.80;;;17.80;99.90;;;;;;933897;152;27332;-74
2023/10/25 09:37:14;;;;;;;3.35;3.08;;;17.80;99.90;;;;;;937625;152;27311;-74
2023/10/25 09:39:41;;;;;;;2.58;2.37;;;17.70;99.90;;;;;;935627;150;27424;-75
2023/10/25 09:42:09;;;;;;;2.70;2.50;;;17.70;99.90;;;;;;919981;152;27387;-76
2023/10/25 09:44:47;;;;;;;2.50;2.30;;;17.60;99.90;;;;;;919666;152;27506;-74
2023/10/25 09:47:13;;;;;;;3.02;2.30;;;17.50;99.90;;;;;;920283;154;27338;-74
2023/10/25 09:49:41;;;;;;;2.67;2.47;;;17.50;99.90;;;;;;938556;152;27362;-78
2023/10/25 09:52:08;;;;;;;2.75;2.55;;;17.40;99.90;;;;;;938719;152;27394;-76
2023/10/25 09:54:35;;;;;;;3.42;2.75;;;17.30;99.90;;;;;;936322;151;27396;-79
2023/10/25 09:57:06;;;;;;;2.62;2.40;;;17.30;99.90;;;;;;935398;149;27331;-79
2023/10/25 09:59:33;;;;;;;2.60;2.47;;;17.20;99.90;;;;;;936433;152;27283;-79
2023/10/25 10:02:00;;;;;;;2.55;2.35;;;17.20;99.90;;;;;;934411;152;27389;-78
2023/10/25 10:04:44;;;;;;;2.70;2.50;;;17.20;99.90;;;;;;933012;152;27292;-75
2023/10/25 10:07:23;;;;;;;1.90;1.80;;;17.10;99.90;;;;;;933977;152;27378;-75
2023/10/25 10:10:05;;;;;;;2.00;1.90;;;17.10;99.90;;;;;;934835;150;28014;-75
2023/10/25 10:12:31;;;;;;;2.52;2.33;;;17.10;99.90;;;;;;929544;150;27391;-76
2023/10/25 10:14:58;;;;;;;2.10;2.00;;;17.00;99.90;;;;;;926340;150;27458;-76
2023/10/25 10:17:25;;;;;;;2.15;2.05;;;17.00;99.90;;;;;;913604;152;27310;-75
2023/10/25 10:19:51;;;;;;;2.10;2.00;;;17.00;99.90;;;;;;910326;152;27332;-76
2023/10/25 10:22:18;;;;;;;2.27;2.08;;;16.90;99.90;;;;;;923382;150;27372;-76
2023/10/25 10:24:47;;;;;;;3.35;2.30;;;16.90;99.90;;;;;;910688;152;28160;-76
2023/10/25 10:27:13;;;;;;;2.20;2.10;;;16.80;99.90;;;;;;924963;150;27418;-76
2023/10/25 10:29:40;;;;;;;2.30;2.20;;;16.80;99.90;;;;;;926207;150;27432;-76
2023/10/25 10:32:07;;;;;;;2.08;1.98;;;16.70;99.90;;;;;;925173;150;27372;-75
2023/10/25 10:34:56;;;;;;;2.80;2.60;;;16.60;99.90;;;;;;925546;150;27388;-77
2023/10/25 10:37:24;;;;;;;2.65;2.40;;;16.60;99.90;;;;;;923593;150;27319;-76
2023/10/25 10:39:56;;;;;;;3.58;2.30;;;16.50;99.90;;;;;;924532;150;27387;-75
2023/10/25 10:42:31;;;;;;;2.40;2.20;;;16.40;99.90;;;;;;924825;150;27388;-75
2023/10/25 10:45:00;;;;;;;2.95;2.15;;;16.30;99.90;;;;;;926959;150;27349;-76
2023/10/25 10:47:27;;;;;;;2.62;2.00;;;16.20;99.90;;;;;;920814;150;27273;-77
2023/10/25 10:49:56;;;;;;;2.77;2.58;;;16.10;99.90;;;;;;922468;150;27359;-76
2023/10/25 10:52:20;;;;;;;2.67;2.47;;;16.00;99.90;;;;;;921828;150;27514;-76
2023/10/25 10:54:47;;;;;;;2.80;2.60;;;15.90;99.90;;;;;;925114;150;27313;-75
2023/10/25 10:57:16;;;;;;;2.47;2.27;;;15.80;99.90;;;;;;925110;151;27373;-76
2023/10/25 10:59:40;;;;;;;2.52;2.33;;;15.70;99.90;;;;;;924045;150;27442;-75
2023/10/25 11:02:07;;;;;;;2.42;2.22;;;15.70;99.90;;;;;;923248;150;27410;-76
2023/10/25 11:04:33;;;;;;;2.65;2.40;;;15.60;99.90;;;;;;925418;150;27289;-77
2023/10/25 11:07:00;;;;;;;2.95;2.65;;;15.50;99.90;;;;;;921413;150;27356;-77
2023/10/25 11:09:26;;;;;;;2.55;2.35;;;15.50;99.90;;;;;;906851;152;27413;-77
2023/10/25 11:11:53;;;;;;;2.98;2.15;;;15.40;99.90;;;;;;926037;150;27502;-77
2023/10/25 11:14:20;;;;;;;5.45;2.42;;;15.30;99.90;;;;;;920836;150;27379;-77
2023/10/25 11:16:46;;;;;;;3.50;2.67;;;15.30;99.90;;;;;;925199;150;27323;-78
2023/10/25 11:19:13;;;;;;;2.45;2.25;;;15.30;99.90;;;;;;925592;150;27825;-77
2023/10/25 11:21:39;;;;;;;2.67;2.47;;;15.20;99.90;;;;;;926620;150;27406;-78
2023/10/25 11:24:09;;;;;;;2.80;2.58;;;15.20;99.90;;;;;;925788;150;27304;-78
2023/10/25 11:26:40;;;;;;;3.17;2.87;;;15.20;99.90;;;;;;923461;150;27435;-78
2023/10/25 11:29:05;;;;;;;2.45;2.25;;;15.20;99.90;;;;;;925401;150;27919;-78
2023/10/25 11:31:32;;;;;;;2.50;2.35;;;15.10;99.90;;;;;;923358;150;27347;-77
2023/10/25 11:33:58;;;;;;;3.80;2.33;;;15.10;99.90;;;;;;925209;150;27464;-78
2023/10/25 11:36:24;;;;;;;3.05;2.60;;;15.10;99.90;;;;;;924871;150;27486;-77
2023/10/25 11:38:51;;;;;;;2.72;2.52;;;15.10;99.90;;;;;;924106;150;27335;-77
2023/10/25 11:41:17;;;;;;;3.62;2.58;;;15.10;99.90;;;;;;926302;150;27447;-77
2023/10/25 11:43:44;;;;;;;2.80;2.60;;;15.20;99.90;;;;;;926975;150;27379;-78
2023/10/25 11:46:11;;;;;;;3.22;2.50;;;15.20;99.90;;;;;;927459;150;27418;-78
2023/10/25 11:48:37;;;;;;;2.87;2.67;;;15.20;99.90;;;;;;924655;150;27378;-78
2023/10/25 11:51:04;;;;;;;3.00;2.72;;;15.20;99.90;;;;;;923794;150;27337;-78
2023/10/25 11:53:30;;;;;;;2.55;2.35;;;15.20;99.90;;;;;;925036;150;27917;-78
2023/10/25 11:55:58;;;;;;;3.02;2.83;;;15.10;99.90;;;;;;924458;150;27473;-78
2023/10/25 11:58:24;;;;;;;2.65;2.50;;;15.10;99.90;;;;;;926514;150;27348;-77
2023/10/25 12:00:50;;;;;;;2.85;2.65;;;15.10;99.90;;;;;;926322;150;27406;-78
2023/10/25 12:03:17;;;;;;;3.00;2.52;;;15.00;99.90;;;;;;926208;150;27331;-78
2023/10/25 12:05:43;;;;;;;2.37;2.22;;;15.00;99.90;;;;;;925442;150;27410;-78
2023/10/25 12:08:10;;;;;;;2.80;2.60;;;15.00;99.90;;;;;;925740;150;27434;-78
2023/10/25 12:10:36;;;;;;;2.98;2.77;;;14.90;99.90;;;;;;923910;150;27332;-78
2023/10/25 12:13:03;;;;;;;3.37;2.87;;;14.90;99.90;;;;;;933884;149;27487;-73
2023/10/25 12:15:30;;;;;;;3.58;3.25;;;14.80;99.90;;;;;;937085;149;27378;-74
2023/10/25 12:17:56;;;;;;;2.52;2.35;;;14.80;99.90;;;;;;935298;149;27425;-75
2023/10/25 12:20:23;;;;;;;2.58;2.40;;;14.70;99.90;;;;;;937941;149;27354;-74
2023/10/25 12:22:49;;;;;;;2.67;2.25;;;14.70;99.90;;;;;;938437;149;27446;-75
2023/10/25 12:25:16;;;;;;;3.22;2.98;;;14.70;99.90;;;;;;939238;149;27414;-76
2023/10/25 12:27:44;;;;;;;2.20;2.10;;;14.70;99.90;;;;;;938112;148;27327;-77
2023/10/25 12:30:09;;;;;;;2.77;2.50;;;14.70;99.90;;;;;;938102;149;27354;-76
2023/10/25 12:32:36;;;;;;;5.72;2.70;;;14.60;99.90;;;;;;935439;149;28318;-75
2023/10/25 12:35:02;;;;;;;2.50;2.30;;;14.70;99.90;;;;;;934482;149;27365;-76
2023/10/25 12:37:29;;;;;;;2.15;1.98;;;14.60;99.90;;;;;;922401;151;27783;-79
2023/10/25 12:39:56;;;;;;;2.33;2.10;;;14.60;99.90;;;;;;936388;146;27454;-76
2023/10/25 12:42:22;;;;;;;2.87;2.00;;;14.60;99.90;;;;;;938092;149;27365;-76
2023/10/25 12:44:49;;;;;;;2.20;2.00;;;14.60;99.90;;;;;;938565;148;27325;-76
2023/10/25 12:47:15;;;;;;;2.45;2.20;;;14.60;99.90;;;;;;937784;149;27424;-76